sensor_id;sensor_type;location;lat;lon;timestamp;temperature;humidity
51733;DHT22;39139;53.144;6.244;2023-07-31T00:00:28;16.70;99.90
51733;DHT22;39139;53.144;6.244;2023-07-31T00:02:54;16.70;99.90
51733;DHT22;39139;53.144;6.244;2023-07-31T00:05:20;16.70;99.90
51733;DHT22;39139;53.144;6.244;2023-07-31T00:07:46;16.70;99.90
51733;DHT22;39139;53.144;6.244;2023-07-31T00:10:12;16.70;99.90
51733;DHT22;39139;53.144;6.244;2023-07-31T00:12:39;16.70;99.90
51733;DHT22;39139;53.144;6.244;2023-07-31T00:15:06;16.70;99.90
51733;DHT22;39139;53.144;6.244;2023-07-31T00:17:32;16.70;99.90
51733;DHT22;39139;53.144;6.244;2023-07-31T00:19:58;16.70;99.90
51733;DHT22;39139;53.144;6.244;2023-07-31T00:22:24;16.70;99.90
51733;DHT22;39139;53.144;6.244;2023-07-31T00:24:49;16.70;99.90
51733;DHT22;39139;53.144;6.244;2023-07-31T00:27:15;16.70;99.90
51733;DHT22;39139;53.144;6.244;2023-07-31T00:29:41;16.70;99.90
51733;DHT22;39139;53.144;6.244;2023-07-31T00:32:07;16.60;99.90
51733;DHT22;39139;53.144;6.244;2023-07-31T00:34:33;16.60;99.90
51733;DHT22;39139;53.144;6.244;2023-07-31T00:36:58;16.60;99.90
51733;DHT22;39139;53.144;6.244;2023-07-31T00:39:24;16.50;99.90
51733;DHT22;39139;53.144;6.244;2023-07-31T00:41:49;16.50;99.90
51733;DHT22;39139;53.144;6.244;2023-07-31T00:44:15;16.50;99.90
51733;DHT22;39139;53.144;6.244;2023-07-31T00:46:41;16.40;99.90
51733;DHT22;39139;53.144;6.244;2023-07-31T00:49:08;16.30;99.90
51733;DHT22;39139;53.144;6.244;2023-07-31T00:51:34;16.30;99.90
51733;DHT22;39139;53.144;6.244;2023-07-31T00:54:00;16.30;99.90
51733;DHT22;39139;53.144;6.244;2023-07-31T00:56:26;16.30;99.90
51733;DHT22;39139;53.144;6.244;2023-07-31T00:58:53;16.20;99.90
51733;DHT22;39139;53.144;6.244;2023-07-31T01:01:19;16.20;99.90
51733;DHT22;39139;53.144;6.244;2023-07-31T01:03:44;16.30;99.90
51733;DHT22;39139;53.144;6.244;2023-07-31T01:11:57;16.20;99.90
51733;DHT22;39139;53.144;6.244;2023-07-31T01:14:25;16.20;99.90
51733;DHT22;39139;53.144;6.244;2023-07-31T01:16:50;16.20;99.90
51733;DHT22;39139;53.144;6.244;2023-07-31T01:19:18;16.20;99.90
51733;DHT22;39139;53.144;6.244;2023-07-31T01:22:12;16.20;99.90
51733;DHT22;39139;53.144;6.244;2023-07-31T01:25:24;16.20;99.90
51733;DHT22;39139;53.144;6.244;2023-07-31T01:28:01;16.20;99.90
51733;DHT22;39139;53.144;6.244;2023-07-31T01:30:32;16.20;99.90
51733;DHT22;39139;53.144;6.244;2023-07-31T01:33:01;16.20;99.90
51733;DHT22;39139;53.144;6.244;2023-07-31T01:35:33;16.20;99.90
51733;DHT22;39139;53.144;6.244;2023-07-31T01:37:59;16.20;99.90
51733;DHT22;39139;53.144;6.244;2023-07-31T01:40:24;16.30;99.90
51733;DHT22;39139;53.144;6.244;2023-07-31T01:42:50;16.20;99.90
51733;DHT22;39139;53.144;6.244;2023-07-31T01:45:16;16.30;99.90
51733;DHT22;39139;53.144;6.244;2023-07-31T01:47:41;16.20;99.90
51733;DHT22;39139;53.144;6.244;2023-07-31T01:50:07;16.30;99.90
51733;DHT22;39139;53.144;6.244;2023-07-31T01:52:33;16.20;99.90
51733;DHT22;39139;53.144;6.244;2023-07-31T01:54:59;16.30;99.90
51733;DHT22;39139;53.144;6.244;2023-07-31T01:57:24;16.20;99.90
51733;DHT22;39139;53.144;6.244;2023-07-31T01:59:50;16.20;99.90
51733;DHT22;39139;53.144;6.244;2023-07-31T02:02:19;16.30;99.90
51733;DHT22;39139;53.144;6.244;2023-07-31T02:04:45;16.20;99.90
51733;DHT22;39139;53.144;6.244;2023-07-31T02:07:11;16.30;99.90
51733;DHT22;39139;53.144;6.244;2023-07-31T02:09:36;16.20;99.90
51733;DHT22;39139;53.144;6.244;2023-07-31T02:12:02;16.30;99.90
51733;DHT22;39139;53.144;6.244;2023-07-31T02:14:28;16.30;99.90
51733;DHT22;39139;53.144;6.244;2023-07-31T02:16:54;16.30;99.90
51733;DHT22;39139;53.144;6.244;2023-07-31T02:19:19;16.30;99.90
51733;DHT22;39139;53.144;6.244;2023-07-31T02:21:45;16.30;99.90
51733;DHT22;39139;53.144;6.244;2023-07-31T02:24:11;16.20;99.90
51733;DHT22;39139;53.144;6.244;2023-07-31T02:26:36;16.20;99.90
51733;DHT22;39139;53.144;6.244;2023-07-31T02:29:02;16.20;99.90
51733;DHT22;39139;53.144;6.244;2023-07-31T02:31:28;16.20;99.90
51733;DHT22;39139;53.144;6.244;2023-07-31T02:33:54;16.20;99.90
51733;DHT22;39139;53.144;6.244;2023-07-31T02:36:19;16.20;99.90
51733;DHT22;39139;53.144;6.244;2023-07-31T02:38:45;16.10;99.90
51733;DHT22;39139;53.144;6.244;2023-07-31T02:41:11;16.20;99.90
51733;DHT22;39139;53.144;6.244;2023-07-31T02:43:36;16.20;99.90
51733;DHT22;39139;53.144;6.244;2023-07-31T02:46:02;16.20;99.90
51733;DHT22;39139;53.144;6.244;2023-07-31T02:48:27;16.20;99.90
51733;DHT22;39139;53.144;6.244;2023-07-31T02:50:53;16.20;99.90
51733;DHT22;39139;53.144;6.244;2023-07-31T02:53:19;16.10;99.90
51733;DHT22;39139;53.144;6.244;2023-07-31T02:55:48;16.20;99.90
51733;DHT22;39139;53.144;6.244;2023-07-31T02:58:14;16.10;99.90
51733;DHT22;39139;53.144;6.244;2023-07-31T03:00:43;16.10;99.90
51733;DHT22;39139;53.144;6.244;2023-07-31T03:03:09;16.20;99.90
51733;DHT22;39139;53.144;6.244;2023-07-31T03:05:35;16.20;99.90
51733;DHT22;39139;53.144;6.244;2023-07-31T03:08:01;16.20;99.90
51733;DHT22;39139;53.144;6.244;2023-07-31T03:10:27;16.20;99.90
51733;DHT22;39139;53.144;6.244;2023-07-31T03:12:52;16.20;99.90
51733;DHT22;39139;53.144;6.244;2023-07-31T03:15:18;16.20;99.90
51733;DHT22;39139;53.144;6.244;2023-07-31T03:17:44;16.20;99.90
51733;DHT22;39139;53.144;6.244;2023-07-31T03:20:10;16.20;99.90
51733;DHT22;39139;53.144;6.244;2023-07-31T03:22:36;16.20;99.90
51733;DHT22;39139;53.144;6.244;2023-07-31T03:25:02;16.20;99.90
51733;DHT22;39139;53.144;6.244;2023-07-31T03:27:28;16.20;99.90
51733;DHT22;39139;53.144;6.244;2023-07-31T03:29:54;16.20;99.90
51733;DHT22;39139;53.144;6.244;2023-07-31T03:32:19;16.20;99.90
51733;DHT22;39139;53.144;6.244;2023-07-31T03:34:45;16.10;99.90
51733;DHT22;39139;53.144;6.244;2023-07-31T03:37:11;16.10;99.90
51733;DHT22;39139;53.144;6.244;2023-07-31T03:39:37;16.20;99.90
51733;DHT22;39139;53.144;6.244;2023-07-31T03:42:02;16.10;99.90
51733;DHT22;39139;53.144;6.244;2023-07-31T03:44:28;16.10;99.90
51733;DHT22;39139;53.144;6.244;2023-07-31T03:46:54;16.10;99.90
51733;DHT22;39139;53.144;6.244;2023-07-31T03:49:19;16.10;99.90
51733;DHT22;39139;53.144;6.244;2023-07-31T03:51:45;16.10;99.90
51733;DHT22;39139;53.144;6.244;2023-07-31T03:54:11;16.10;99.90
51733;DHT22;39139;53.144;6.244;2023-07-31T03:56:38;16.10;99.90
51733;DHT22;39139;53.144;6.244;2023-07-31T03:59:04;16.10;99.90
51733;DHT22;39139;53.144;6.244;2023-07-31T04:01:29;16.10;99.90
51733;DHT22;39139;53.144;6.244;2023-07-31T04:03:55;16.00;99.90
51733;DHT22;39139;53.144;6.244;2023-07-31T04:06:21;16.10;99.90
51733;DHT22;39139;53.144;6.244;2023-07-31T04:08:46;16.00;99.90
51733;DHT22;39139;53.144;6.244;2023-07-31T04:11:12;16.00;99.90
51733;DHT22;39139;53.144;6.244;2023-07-31T04:13:38;16.00;99.90
51733;DHT22;39139;53.144;6.244;2023-07-31T04:16:04;16.00;99.90
51733;DHT22;39139;53.144;6.244;2023-07-31T04:18:30;16.00;99.90
51733;DHT22;39139;53.144;6.244;2023-07-31T04:20:57;16.10;99.90
51733;DHT22;39139;53.144;6.244;2023-07-31T04:23:27;16.00;99.90
51733;DHT22;39139;53.144;6.244;2023-07-31T04:25:52;16.00;99.90
51733;DHT22;39139;53.144;6.244;2023-07-31T04:28:18;16.10;99.90
51733;DHT22;39139;53.144;6.244;2023-07-31T04:30:43;16.10;99.90
51733;DHT22;39139;53.144;6.244;2023-07-31T04:33:09;16.00;99.90
51733;DHT22;39139;53.144;6.244;2023-07-31T04:35:35;16.10;99.90
51733;DHT22;39139;53.144;6.244;2023-07-31T04:38:01;16.10;99.90
51733;DHT22;39139;53.144;6.244;2023-07-31T04:40:29;16.00;99.90
51733;DHT22;39139;53.144;6.244;2023-07-31T04:42:55;16.00;99.90
51733;DHT22;39139;53.144;6.244;2023-07-31T04:45:21;16.00;99.90
51733;DHT22;39139;53.144;6.244;2023-07-31T04:47:46;16.10;99.90
51733;DHT22;39139;53.144;6.244;2023-07-31T04:50:12;15.90;99.90
51733;DHT22;39139;53.144;6.244;2023-07-31T04:52:38;15.90;99.90
51733;DHT22;39139;53.144;6.244;2023-07-31T04:55:04;16.00;99.90
51733;DHT22;39139;53.144;6.244;2023-07-31T04:57:29;16.00;99.90
51733;DHT22;39139;53.144;6.244;2023-07-31T04:59:55;16.00;99.90
51733;DHT22;39139;53.144;6.244;2023-07-31T05:02:21;16.00;99.90
51733;DHT22;39139;53.144;6.244;2023-07-31T05:04:46;16.00;99.90
51733;DHT22;39139;53.144;6.244;2023-07-31T05:07:12;15.90;99.90
51733;DHT22;39139;53.144;6.244;2023-07-31T05:09:38;16.00;99.90
51733;DHT22;39139;53.144;6.244;2023-07-31T05:12:05;16.00;99.90
51733;DHT22;39139;53.144;6.244;2023-07-31T05:14:31;16.00;99.90
51733;DHT22;39139;53.144;6.244;2023-07-31T05:16:57;16.00;99.90
51733;DHT22;39139;53.144;6.244;2023-07-31T05:19:22;16.00;99.90
51733;DHT22;39139;53.144;6.244;2023-07-31T05:21:48;16.10;99.90
51733;DHT22;39139;53.144;6.244;2023-07-31T05:24:14;16.00;99.90
51733;DHT22;39139;53.144;6.244;2023-07-31T05:26:40;16.00;99.90
51733;DHT22;39139;53.144;6.244;2023-07-31T05:29:05;16.10;99.90
51733;DHT22;39139;53.144;6.244;2023-07-31T05:31:31;16.10;99.90
51733;DHT22;39139;53.144;6.244;2023-07-31T05:33:58;16.10;99.90
51733;DHT22;39139;53.144;6.244;2023-07-31T05:36:23;16.20;99.90
51733;DHT22;39139;53.144;6.244;2023-07-31T05:38:49;16.20;99.90
51733;DHT22;39139;53.144;6.244;2023-07-31T05:41:15;16.20;99.90
51733;DHT22;39139;53.144;6.244;2023-07-31T05:43:41;16.10;99.90
51733;DHT22;39139;53.144;6.244;2023-07-31T05:46:08;16.20;99.90
51733;DHT22;39139;53.144;6.244;2023-07-31T05:48:34;16.20;99.90
51733;DHT22;39139;53.144;6.244;2023-07-31T05:51:00;16.30;99.90
51733;DHT22;39139;53.144;6.244;2023-07-31T05:53:26;16.20;99.90
51733;DHT22;39139;53.144;6.244;2023-07-31T05:55:51;16.20;99.90
51733;DHT22;39139;53.144;6.244;2023-07-31T05:58:17;16.30;99.90
51733;DHT22;39139;53.144;6.244;2023-07-31T06:00:43;16.30;99.90
51733;DHT22;39139;53.144;6.244;2023-07-31T06:03:08;16.30;99.90
51733;DHT22;39139;53.144;6.244;2023-07-31T06:05:34;16.40;99.90
51733;DHT22;39139;53.144;6.244;2023-07-31T06:08:00;16.30;99.90
51733;DHT22;39139;53.144;6.244;2023-07-31T06:10:26;16.40;99.90
51733;DHT22;39139;53.144;6.244;2023-07-31T06:12:52;16.50;99.90
51733;DHT22;39139;53.144;6.244;2023-07-31T06:15:18;16.50;99.90
51733;DHT22;39139;53.144;6.244;2023-07-31T06:17:45;16.50;99.90
51733;DHT22;39139;53.144;6.244;2023-07-31T06:20:10;16.50;99.90
51733;DHT22;39139;53.144;6.244;2023-07-31T06:22:36;16.60;99.90
51733;DHT22;39139;53.144;6.244;2023-07-31T06:25:02;16.60;99.90
51733;DHT22;39139;53.144;6.244;2023-07-31T06:27:28;16.60;99.90
51733;DHT22;39139;53.144;6.244;2023-07-31T06:29:53;16.60;99.90
51733;DHT22;39139;53.144;6.244;2023-07-31T06:32:19;16.70;99.90
51733;DHT22;39139;53.144;6.244;2023-07-31T06:34:45;16.70;99.90
51733;DHT22;39139;53.144;6.244;2023-07-31T06:37:10;16.70;99.90
51733;DHT22;39139;53.144;6.244;2023-07-31T06:39:36;16.80;99.90
51733;DHT22;39139;53.144;6.244;2023-07-31T06:42:03;17.00;99.90
51733;DHT22;39139;53.144;6.244;2023-07-31T06:44:28;17.00;99.90
51733;DHT22;39139;53.144;6.244;2023-07-31T06:46:54;17.10;99.90
51733;DHT22;39139;53.144;6.244;2023-07-31T06:49:20;17.00;99.90
51733;DHT22;39139;53.144;6.244;2023-07-31T06:51:45;17.10;99.90
51733;DHT22;39139;53.144;6.244;2023-07-31T06:54:11;17.10;99.90
51733;DHT22;39139;53.144;6.244;2023-07-31T06:56:37;17.10;99.90
51733;DHT22;39139;53.144;6.244;2023-07-31T06:59:03;17.10;99.90
51733;DHT22;39139;53.144;6.244;2023-07-31T07:01:29;17.10;99.90
51733;DHT22;39139;53.144;6.244;2023-07-31T07:03:54;17.10;99.90
51733;DHT22;39139;53.144;6.244;2023-07-31T07:06:21;17.10;99.90
51733;DHT22;39139;53.144;6.244;2023-07-31T07:08:48;17.10;99.90
51733;DHT22;39139;53.144;6.244;2023-07-31T07:11:13;17.10;99.90
51733;DHT22;39139;53.144;6.244;2023-07-31T07:13:39;17.10;99.90
51733;DHT22;39139;53.144;6.244;2023-07-31T07:16:05;17.10;99.90
51733;DHT22;39139;53.144;6.244;2023-07-31T07:18:30;17.10;99.90
51733;DHT22;39139;53.144;6.244;2023-07-31T07:20:56;17.20;99.90
51733;DHT22;39139;53.144;6.244;2023-07-31T07:23:24;17.20;99.90
51733;DHT22;39139;53.144;6.244;2023-07-31T07:25:50;17.20;99.90
51733;DHT22;39139;53.144;6.244;2023-07-31T07:28:16;17.20;99.90
51733;DHT22;39139;53.144;6.244;2023-07-31T07:30:42;17.30;99.90
51733;DHT22;39139;53.144;6.244;2023-07-31T07:33:08;17.30;99.90
51733;DHT22;39139;53.144;6.244;2023-07-31T07:35:34;17.20;99.90
51733;DHT22;39139;53.144;6.244;2023-07-31T07:38:01;17.20;99.90
51733;DHT22;39139;53.144;6.244;2023-07-31T07:40:27;17.20;99.90
51733;DHT22;39139;53.144;6.244;2023-07-31T07:42:52;17.30;99.90
51733;DHT22;39139;53.144;6.244;2023-07-31T07:45:18;17.30;99.90
51733;DHT22;39139;53.144;6.244;2023-07-31T07:47:44;17.20;99.90
51733;DHT22;39139;53.144;6.244;2023-07-31T07:50:09;17.20;99.90
51733;DHT22;39139;53.144;6.244;2023-07-31T07:52:35;17.20;99.90
51733;DHT22;39139;53.144;6.244;2023-07-31T07:55:01;17.10;99.90
51733;DHT22;39139;53.144;6.244;2023-07-31T07:57:27;17.20;99.90
51733;DHT22;39139;53.144;6.244;2023-07-31T07:59:53;17.20;99.90
51733;DHT22;39139;53.144;6.244;2023-07-31T08:02:18;17.10;99.90
51733;DHT22;39139;53.144;6.244;2023-07-31T08:04:44;17.00;99.90
51733;DHT22;39139;53.144;6.244;2023-07-31T08:07:13;17.10;99.90
51733;DHT22;39139;53.144;6.244;2023-07-31T08:09:39;17.00;99.90
51733;DHT22;39139;53.144;6.244;2023-07-31T08:12:05;17.10;99.90
51733;DHT22;39139;53.144;6.244;2023-07-31T08:14:31;17.10;99.90
51733;DHT22;39139;53.144;6.244;2023-07-31T08:16:57;17.10;99.90
51733;DHT22;39139;53.144;6.244;2023-07-31T08:19:22;17.20;99.90
51733;DHT22;39139;53.144;6.244;2023-07-31T08:21:48;17.20;99.90
51733;DHT22;39139;53.144;6.244;2023-07-31T08:24:14;17.20;99.90
51733;DHT22;39139;53.144;6.244;2023-07-31T08:26:40;17.30;99.90
51733;DHT22;39139;53.144;6.244;2023-07-31T08:29:06;17.20;99.90
51733;DHT22;39139;53.144;6.244;2023-07-31T08:31:31;17.30;99.90
51733;DHT22;39139;53.144;6.244;2023-07-31T08:33:57;17.30;99.90
51733;DHT22;39139;53.144;6.244;2023-07-31T08:36:23;17.20;99.90
51733;DHT22;39139;53.144;6.244;2023-07-31T08:38:48;17.30;99.90
51733;DHT22;39139;53.144;6.244;2023-07-31T08:41:15;17.30;99.90
51733;DHT22;39139;53.144;6.244;2023-07-31T08:43:45;17.30;99.90
51733;DHT22;39139;53.144;6.244;2023-07-31T08:46:11;17.40;99.90
51733;DHT22;39139;53.144;6.244;2023-07-31T08:48:37;17.40;99.90
51733;DHT22;39139;53.144;6.244;2023-07-31T08:51:04;17.40;99.90
51733;DHT22;39139;53.144;6.244;2023-07-31T08:53:30;17.40;99.90
51733;DHT22;39139;53.144;6.244;2023-07-31T08:55:56;17.50;99.90
51733;DHT22;39139;53.144;6.244;2023-07-31T08:58:24;17.40;99.90
51733;DHT22;39139;53.144;6.244;2023-07-31T09:00:51;17.50;99.90
51733;DHT22;39139;53.144;6.244;2023-07-31T09:03:18;17.50;99.90
51733;DHT22;39139;53.144;6.244;2023-07-31T09:05:46;17.50;99.90
51733;DHT22;39139;53.144;6.244;2023-07-31T09:08:14;17.60;99.90
51733;DHT22;39139;53.144;6.244;2023-07-31T09:10:44;17.60;99.90
51733;DHT22;39139;53.144;6.244;2023-07-31T09:13:14;17.60;99.90
51733;DHT22;39139;53.144;6.244;2023-07-31T09:15:43;17.50;99.90
51733;DHT22;39139;53.144;6.244;2023-07-31T09:18:10;17.50;99.90
51733;DHT22;39139;53.144;6.244;2023-07-31T09:20:36;17.50;99.90
51733;DHT22;39139;53.144;6.244;2023-07-31T09:23:12;17.50;99.90
51733;DHT22;39139;53.144;6.244;2023-07-31T09:25:39;17.50;99.90
51733;DHT22;39139;53.144;6.244;2023-07-31T09:28:09;17.50;99.90
51733;DHT22;39139;53.144;6.244;2023-07-31T09:30:46;17.60;99.90
51733;DHT22;39139;53.144;6.244;2023-07-31T09:33:13;17.60;99.90
51733;DHT22;39139;53.144;6.244;2023-07-31T09:35:39;17.50;99.90
51733;DHT22;39139;53.144;6.244;2023-07-31T09:38:09;17.60;99.90
51733;DHT22;39139;53.144;6.244;2023-07-31T09:40:36;17.60;99.90
51733;DHT22;39139;53.144;6.244;2023-07-31T09:43:07;17.60;99.90
51733;DHT22;39139;53.144;6.244;2023-07-31T09:45:38;17.70;99.90
51733;DHT22;39139;53.144;6.244;2023-07-31T09:48:10;17.70;99.90
51733;DHT22;39139;53.144;6.244;2023-07-31T09:50:40;17.80;99.90
51733;DHT22;39139;53.144;6.244;2023-07-31T09:53:06;17.70;99.90
51733;DHT22;39139;53.144;6.244;2023-07-31T09:55:33;17.90;99.90
51733;DHT22;39139;53.144;6.244;2023-07-31T09:57:59;18.00;99.90
51733;DHT22;39139;53.144;6.244;2023-07-31T10:00:28;18.00;99.90
51733;DHT22;39139;53.144;6.244;2023-07-31T10:02:59;18.00;99.90
51733;DHT22;39139;53.144;6.244;2023-07-31T10:05:30;18.00;99.90
51733;DHT22;39139;53.144;6.244;2023-07-31T10:07:57;18.10;99.90
51733;DHT22;39139;53.144;6.244;2023-07-31T10:10:23;18.10;99.90
51733;DHT22;39139;53.144;6.244;2023-07-31T10:12:52;18.10;99.90
51733;DHT22;39139;53.144;6.244;2023-07-31T10:15:18;18.20;99.90
51733;DHT22;39139;53.144;6.244;2023-07-31T10:17:44;18.20;99.90
51733;DHT22;39139;53.144;6.244;2023-07-31T10:20:10;18.20;99.90
51733;DHT22;39139;53.144;6.244;2023-07-31T10:22:36;18.20;99.90
51733;DHT22;39139;53.144;6.244;2023-07-31T10:25:04;18.20;99.90
51733;DHT22;39139;53.144;6.244;2023-07-31T10:27:30;18.40;99.90
51733;DHT22;39139;53.144;6.244;2023-07-31T10:29:57;18.40;99.90
51733;DHT22;39139;53.144;6.244;2023-07-31T10:32:24;18.40;99.90
51733;DHT22;39139;53.144;6.244;2023-07-31T10:34:51;18.50;99.90
51733;DHT22;39139;53.144;6.244;2023-07-31T10:37:24;18.60;99.90
51733;DHT22;39139;53.144;6.244;2023-07-31T10:40:11;18.80;99.90
51733;DHT22;39139;53.144;6.244;2023-07-31T10:42:49;18.90;99.90
51733;DHT22;39139;53.144;6.244;2023-07-31T10:45:24;19.10;99.90
51733;DHT22;39139;53.144;6.244;2023-07-31T10:48:02;19.20;99.90
51733;DHT22;39139;53.144;6.244;2023-07-31T10:50:30;19.10;99.90
51733;DHT22;39139;53.144;6.244;2023-07-31T10:52:58;19.20;99.90
51733;DHT22;39139;53.144;6.244;2023-07-31T11:00:32;19.00;99.90
51733;DHT22;39139;53.144;6.244;2023-07-31T11:03:02;18.90;99.90
51733;DHT22;39139;53.144;6.244;2023-07-31T11:10:41;18.90;99.90
51733;DHT22;39139;53.144;6.244;2023-07-31T11:13:07;18.80;99.90
51733;DHT22;39139;53.144;6.244;2023-07-31T11:15:32;19.10;99.90
51733;DHT22;39139;53.144;6.244;2023-07-31T11:18:00;19.10;99.90
51733;DHT22;39139;53.144;6.244;2023-07-31T11:20:30;19.20;99.90
51733;DHT22;39139;53.144;6.244;2023-07-31T11:22:59;19.10;99.90
51733;DHT22;39139;53.144;6.244;2023-07-31T11:25:25;19.00;99.90
51733;DHT22;39139;53.144;6.244;2023-07-31T11:27:50;19.00;99.90
51733;DHT22;39139;53.144;6.244;2023-07-31T11:30:19;19.00;99.90
51733;DHT22;39139;53.144;6.244;2023-07-31T11:32:45;18.90;99.90
51733;DHT22;39139;53.144;6.244;2023-07-31T11:35:14;18.90;99.90
51733;DHT22;39139;53.144;6.244;2023-07-31T11:37:41;18.90;99.90
51733;DHT22;39139;53.144;6.244;2023-07-31T11:40:07;18.90;99.90
51733;DHT22;39139;53.144;6.244;2023-07-31T11:42:35;18.90;99.90
51733;DHT22;39139;53.144;6.244;2023-07-31T11:45:05;18.90;99.90
51733;DHT22;39139;53.144;6.244;2023-07-31T11:47:36;18.80;99.90
51733;DHT22;39139;53.144;6.244;2023-07-31T11:50:03;18.90;99.90
51733;DHT22;39139;53.144;6.244;2023-07-31T11:52:37;18.80;99.90
51733;DHT22;39139;53.144;6.244;2023-07-31T11:55:06;18.80;99.90
51733;DHT22;39139;53.144;6.244;2023-07-31T11:57:37;18.80;99.90
51733;DHT22;39139;53.144;6.244;2023-07-31T12:00:03;18.90;99.90
51733;DHT22;39139;53.144;6.244;2023-07-31T12:02:29;19.00;99.90
51733;DHT22;39139;53.144;6.244;2023-07-31T12:04:55;18.90;99.90
51733;DHT22;39139;53.144;6.244;2023-07-31T12:07:21;19.00;99.90
51733;DHT22;39139;53.144;6.244;2023-07-31T12:09:56;18.90;99.90
51733;DHT22;39139;53.144;6.244;2023-07-31T12:12:23;18.90;99.90
51733;DHT22;39139;53.144;6.244;2023-07-31T12:14:49;18.90;99.90
51733;DHT22;39139;53.144;6.244;2023-07-31T12:17:17;19.00;99.90
51733;DHT22;39139;53.144;6.244;2023-07-31T12:19:44;18.90;99.90
51733;DHT22;39139;53.144;6.244;2023-07-31T12:22:14;19.00;99.90
51733;DHT22;39139;53.144;6.244;2023-07-31T12:24:41;19.00;99.90
51733;DHT22;39139;53.144;6.244;2023-07-31T12:27:14;19.00;99.90
51733;DHT22;39139;53.144;6.244;2023-07-31T12:29:41;19.00;99.90
51733;DHT22;39139;53.144;6.244;2023-07-31T12:32:22;19.00;99.90
51733;DHT22;39139;53.144;6.244;2023-07-31T12:34:49;19.00;99.90
51733;DHT22;39139;53.144;6.244;2023-07-31T12:37:15;19.00;99.90
51733;DHT22;39139;53.144;6.244;2023-07-31T12:39:40;19.00;99.90
51733;DHT22;39139;53.144;6.244;2023-07-31T12:42:06;19.00;99.90
51733;DHT22;39139;53.144;6.244;2023-07-31T12:44:32;19.00;99.90
51733;DHT22;39139;53.144;6.244;2023-07-31T12:46:57;18.90;99.90
51733;DHT22;39139;53.144;6.244;2023-07-31T12:49:23;19.00;99.90
51733;DHT22;39139;53.144;6.244;2023-07-31T12:51:49;19.00;99.90
51733;DHT22;39139;53.144;6.244;2023-07-31T12:54:15;19.00;99.90
51733;DHT22;39139;53.144;6.244;2023-07-31T12:56:40;19.00;99.90
51733;DHT22;39139;53.144;6.244;2023-07-31T12:59:06;19.00;99.90
51733;DHT22;39139;53.144;6.244;2023-07-31T13:01:32;19.10;99.90
51733;DHT22;39139;53.144;6.244;2023-07-31T13:03:57;19.00;99.90
51733;DHT22;39139;53.144;6.244;2023-07-31T13:06:25;19.00;99.90
51733;DHT22;39139;53.144;6.244;2023-07-31T13:08:51;19.00;99.90
51733;DHT22;39139;53.144;6.244;2023-07-31T13:11:17;18.90;99.90
51733;DHT22;39139;53.144;6.244;2023-07-31T13:13:42;18.90;99.90
51733;DHT22;39139;53.144;6.244;2023-07-31T13:16:11;19.00;99.90
51733;DHT22;39139;53.144;6.244;2023-07-31T13:18:37;19.10;99.90
51733;DHT22;39139;53.144;6.244;2023-07-31T13:21:02;19.00;99.90
51733;DHT22;39139;53.144;6.244;2023-07-31T13:23:28;19.10;99.90
51733;DHT22;39139;53.144;6.244;2023-07-31T13:25:54;19.20;99.90
51733;DHT22;39139;53.144;6.244;2023-07-31T13:28:19;19.10;99.90
51733;DHT22;39139;53.144;6.244;2023-07-31T13:30:45;19.10;99.90
51733;DHT22;39139;53.144;6.244;2023-07-31T13:33:11;19.10;99.90
51733;DHT22;39139;53.144;6.244;2023-07-31T13:35:37;19.20;99.90
51733;DHT22;39139;53.144;6.244;2023-07-31T13:38:02;19.20;99.90
51733;DHT22;39139;53.144;6.244;2023-07-31T13:40:28;19.30;99.90
51733;DHT22;39139;53.144;6.244;2023-07-31T13:42:54;19.30;99.90
51733;DHT22;39139;53.144;6.244;2023-07-31T13:45:21;19.30;99.90
51733;DHT22;39139;53.144;6.244;2023-07-31T13:47:46;19.30;99.90
51733;DHT22;39139;53.144;6.244;2023-07-31T13:50:12;19.30;99.90
51733;DHT22;39139;53.144;6.244;2023-07-31T13:52:38;19.40;99.90
51733;DHT22;39139;53.144;6.244;2023-07-31T13:55:03;19.10;99.90
51733;DHT22;39139;53.144;6.244;2023-07-31T13:57:29;19.40;99.90
51733;DHT22;39139;53.144;6.244;2023-07-31T13:59:55;19.40;99.90
51733;DHT22;39139;53.144;6.244;2023-07-31T14:02:20;19.40;99.90
51733;DHT22;39139;53.144;6.244;2023-07-31T14:04:46;19.30;99.90
51733;DHT22;39139;53.144;6.244;2023-07-31T14:07:12;19.30;99.90
51733;DHT22;39139;53.144;6.244;2023-07-31T14:09:37;19.20;99.90
51733;DHT22;39139;53.144;6.244;2023-07-31T14:12:03;19.20;99.90
51733;DHT22;39139;53.144;6.244;2023-07-31T14:14:29;19.20;99.90
51733;DHT22;39139;53.144;6.244;2023-07-31T14:16:55;19.20;99.90
51733;DHT22;39139;53.144;6.244;2023-07-31T14:19:20;19.20;99.90
51733;DHT22;39139;53.144;6.244;2023-07-31T14:21:46;19.20;99.90
51733;DHT22;39139;53.144;6.244;2023-07-31T14:24:12;19.30;99.90
51733;DHT22;39139;53.144;6.244;2023-07-31T14:26:37;19.20;99.90
51733;DHT22;39139;53.144;6.244;2023-07-31T14:29:03;19.20;99.90
51733;DHT22;39139;53.144;6.244;2023-07-31T14:31:28;19.30;99.90
51733;DHT22;39139;53.144;6.244;2023-07-31T14:33:54;19.20;99.90
51733;DHT22;39139;53.144;6.244;2023-07-31T14:36:20;19.20;99.90
51733;DHT22;39139;53.144;6.244;2023-07-31T14:38:45;19.30;99.90
51733;DHT22;39139;53.144;6.244;2023-07-31T14:41:11;19.30;99.90
51733;DHT22;39139;53.144;6.244;2023-07-31T14:43:37;19.20;99.90
51733;DHT22;39139;53.144;6.244;2023-07-31T14:46:02;19.20;99.90
51733;DHT22;39139;53.144;6.244;2023-07-31T14:48:28;19.20;99.90
51733;DHT22;39139;53.144;6.244;2023-07-31T14:50:54;19.20;99.90
51733;DHT22;39139;53.144;6.244;2023-07-31T14:53:21;19.20;99.90
51733;DHT22;39139;53.144;6.244;2023-07-31T14:55:47;19.10;99.90
51733;DHT22;39139;53.144;6.244;2023-07-31T14:58:13;19.10;99.90
51733;DHT22;39139;53.144;6.244;2023-07-31T15:00:40;19.10;99.90
51733;DHT22;39139;53.144;6.244;2023-07-31T15:03:05;19.10;99.90
51733;DHT22;39139;53.144;6.244;2023-07-31T15:05:31;19.00;99.90
51733;DHT22;39139;53.144;6.244;2023-07-31T15:07:57;19.10;99.90
51733;DHT22;39139;53.144;6.244;2023-07-31T15:10:22;19.10;99.90
51733;DHT22;39139;53.144;6.244;2023-07-31T15:12:48;19.10;99.90
51733;DHT22;39139;53.144;6.244;2023-07-31T15:15:15;19.00;99.90
51733;DHT22;39139;53.144;6.244;2023-07-31T15:17:41;19.00;99.90
51733;DHT22;39139;53.144;6.244;2023-07-31T15:20:07;19.00;99.90
51733;DHT22;39139;53.144;6.244;2023-07-31T15:22:33;19.00;99.90
51733;DHT22;39139;53.144;6.244;2023-07-31T15:24:58;19.00;99.90
51733;DHT22;39139;53.144;6.244;2023-07-31T15:27:24;19.00;99.90
51733;DHT22;39139;53.144;6.244;2023-07-31T15:29:50;19.00;99.90
51733;DHT22;39139;53.144;6.244;2023-07-31T15:32:17;19.00;99.90
51733;DHT22;39139;53.144;6.244;2023-07-31T15:34:43;18.90;99.90
51733;DHT22;39139;53.144;6.244;2023-07-31T15:37:09;19.00;99.90
51733;DHT22;39139;53.144;6.244;2023-07-31T15:39:35;19.00;99.90
51733;DHT22;39139;53.144;6.244;2023-07-31T15:42:00;19.00;99.90